Time;durP1;ratioP1;P1;durP2;ratioP2;P2;SDS_P1;SDS_P2;PMS_P1;PMS_P2;Temp;Humidity;BMP_temperature;BMP_pressure;BME280_temperature;BME280_humidity;BME280_pressure;Samples;Min_cycle;Max_cycle;Signal;HPM_P1;HPM_P2
2023/08/10 00:01:22;;;;;;;10.60;2.20;;;;;;;;;;5085051;28;20185;-54
2023/08/10 00:03:49;;;;;;;8.32;2.10;;;;;;;;;;5084959;28;20039;-49
2023/08/10 00:06:16;;;;;;;4.03;2.10;;;;;;;;;;5084913;28;20024;-54
2023/08/10 00:08:42;;;;;;;2.58;2.10;;;;;;;;;;5084649;28;20021;-51
2023/08/10 00:11:09;;;;;;;3.83;1.80;;;;;;;;;;5084680;28;20261;-52
2023/08/10 00:13:36;;;;;;;2.50;1.65;;;;;;;;;;5084504;28;20250;-52
2023/08/10 00:16:03;;;;;;;3.83;1.88;;;;;;;;;;5084494;28;20020;-53
2023/08/10 00:18:30;;;;;;;3.95;2.25;;;;;;;;;;5084723;28;20348;-53
2023/08/10 00:20:57;;;;;;;4.32;2.22;;;;;;;;;;5088932;28;20051;-55
2023/08/10 00:23:26;;;;;;;3.58;1.98;;;;;;;;;;5114931;28;20032;-55
2023/08/10 00:25:53;;;;;;;5.00;2.03;;;;;;;;;;5120897;28;20292;-47
2023/08/10 00:28:20;;;;;;;6.35;2.70;;;;;;;;;;5125362;28;20074;-51
2023/08/10 00:30:50;;;;;;;12.70;4.57;;;;;;;;;;5125307;28;20312;-50
2023/08/10 00:33:17;;;;;;;25.27;8.98;;;;;;;;;;5105639;28;20323;-47
2023/08/10 00:35:44;;;;;;;32.17;11.25;;;;;;;;;;5104936;28;20189;-52
2023/08/10 00:38:12;;;;;;;23.60;8.35;;;;;;;;;;5104600;28;20083;-46
2023/08/10 00:40:39;;;;;;;20.15;5.85;;;;;;;;;;5104465;28;20056;-46
2023/08/10 00:43:05;;;;;;;10.60;4.60;;;;;;;;;;5104711;28;20032;-49
2023/08/10 00:45:33;;;;;;;8.57;3.85;;;;;;;;;;5092007;28;20216;-47
2023/08/10 00:48:00;;;;;;;10.70;3.33;;;;;;;;;;5096078;28;20205;-54
2023/08/10 00:50:29;;;;;;;5.30;2.63;;;;;;;;;;5093285;28;20024;-48
2023/08/10 00:52:56;;;;;;;6.78;4.15;;;;;;;;;;5091841;28;20012;-52
2023/08/10 00:55:23;;;;;;;8.52;3.72;;;;;;;;;;5091957;28;20032;-54
2023/08/10 00:57:49;;;;;;;6.30;3.08;;;;;;;;;;5084253;28;20048;-47
2023/08/10 01:00:16;;;;;;;5.55;3.75;;;;;;;;;;5100065;28;20309;-42
2023/08/10 01:02:46;;;;;;;7.38;5.85;;;;;;;;;;5101297;28;20066;-49
2023/08/10 01:05:13;;;;;;;37.83;26.25;;;;;;;;;;5093054;28;20328;-44
2023/08/10 01:07:40;;;;;;;74.82;58.13;;;;;;;;;;5085191;28;20085;-48
2023/08/10 01:10:23;;;;;;;113.90;82.32;;;;;;;;;;5111836;28;20201;-44
2023/08/10 01:12:55;;;;;;;131.52;90.18;;;;;;;;;;5094571;28;20020;-46
2023/08/10 01:15:33;;;;;;;127.75;86.90;;;;;;;;;;5103969;28;20040;-50
2023/08/10 01:18:10;;;;;;;91.95;63.55;;;;;;;;;;5078063;28;20032;-50
2023/08/10 01:20:38;;;;;;;53.80;34.92;;;;;;;;;;5084043;28;20074;-50
2023/08/10 01:23:11;;;;;;;37.20;24.10;;;;;;;;;;5086898;28;20046;-49
2023/08/10 01:25:37;;;;;;;64.20;41.40;;;;;;;;;;5099238;28;20082;-54
2023/08/10 01:28:04;;;;;;;59.58;39.38;;;;;;;;;;5107941;28;20039;-56
2023/08/10 01:30:31;;;;;;;106.03;69.35;;;;;;;;;;5107693;28;20016;-58
2023/08/10 01:33:01;;;;;;;100.25;62.28;;;;;;;;;;5099726;28;20035;-51
2023/08/10 01:35:28;;;;;;;81.40;51.08;;;;;;;;;;5095913;28;20020;-50
2023/08/10 01:37:55;;;;;;;51.70;33.90;;;;;;;;;;5097517;28;20024;-53
2023/08/10 01:40:22;;;;;;;45.97;29.05;;;;;;;;;;5098578;28;20056;-46
2023/08/10 01:42:52;;;;;;;62.50;39.35;;;;;;;;;;5094572;28;20020;-53
2023/08/10 01:45:20;;;;;;;70.30;43.65;;;;;;;;;;5107637;28;20059;-50
2023/08/10 01:47:47;;;;;;;50.20;31.20;;;;;;;;;;5107520;28;20032;-50
2023/08/10 01:50:16;;;;;;;37.90;24.00;;;;;;;;;;5108142;28;20046;-55
2023/08/10 01:52:50;;;;;;;22.95;15.38;;;;;;;;;;5107606;28;20012;-47
2023/08/10 01:55:19;;;;;;;24.48;13.50;;;;;;;;;;5100997;28;20208;-49
2023/08/10 01:57:46;;;;;;;24.27;11.82;;;;;;;;;;5089620;28;20036;-56
2023/08/10 02:00:16;;;;;;;24.90;19.80;;;;;;;;;;5090817;28;20091;-54
2023/08/10 02:02:43;;;;;;;19.55;11.98;;;;;;;;;;5078449;28;20027;-48
2023/08/10 02:05:14;;;;;;;14.95;9.18;;;;;;;;;;5103782;28;20031;-51
2023/08/10 02:07:41;;;;;;;14.32;7.95;;;;;;;;;;5096402;28;20082;-45
2023/08/10 02:10:14;;;;;;;13.82;6.35;;;;;;;;;;5085903;28;20232;-50
2023/08/10 02:12:40;;;;;;;15.63;4.97;;;;;;;;;;5100663;28;20023;-46
2023/08/10 02:15:13;;;;;;;6.30;4.57;;;;;;;;;;5107232;28;20027;-49
2023/08/10 02:17:44;;;;;;;6.93;3.33;;;;;;;;;;5107618;28;20034;-45
2023/08/10 02:20:14;;;;;;;8.38;3.20;;;;;;;;;;5089474;28;20035;-51
2023/08/10 02:22:42;;;;;;;5.53;3.38;;;;;;;;;;5108236;28;20020;-49
2023/08/10 02:25:15;;;;;;;5.70;2.97;;;;;;;;;;5109701;28;20040;-48
2023/08/10 02:27:43;;;;;;;3.58;2.63;;;;;;;;;;5109532;28;20080;-52
2023/08/10 02:30:10;;;;;;;4.43;2.30;;;;;;;;;;5103504;28;20032;-51
2023/08/10 02:32:37;;;;;;;5.32;2.70;;;;;;;;;;5094632;28;20047;-53
2023/08/10 02:35:05;;;;;;;5.07;2.53;;;;;;;;;;5094336;28;20027;-51
2023/08/10 02:37:35;;;;;;;5.65;2.00;;;;;;;;;;5086429;28;20197;-51
2023/08/10 02:40:04;;;;;;;4.38;2.40;;;;;;;;;;5106571;28;20027;-48
2023/08/10 02:42:31;;;;;;;6.90;2.20;;;;;;;;;;5099542;28;20319;-54
2023/08/10 02:44:57;;;;;;;3.92;2.13;;;;;;;;;;5086082;28;20080;-47
2023/08/10 02:47:24;;;;;;;4.88;2.50;;;;;;;;;;5086458;28;20029;-48
2023/08/10 02:49:51;;;;;;;4.15;2.20;;;;;;;;;;5086700;28;20024;-52
2023/08/10 02:52:18;;;;;;;7.80;1.90;;;;;;;;;;5087035;28;20082;-53
2023/08/10 02:54:44;;;;;;;5.45;3.90;;;;;;;;;;5088783;28;20016;-52
2023/08/10 02:57:14;;;;;;;6.03;2.90;;;;;;;;;;5095175;28;20074;-48
2023/08/10 02:59:40;;;;;;;5.80;2.22;;;;;;;;;;5084784;28;20035;-44
2023/08/10 03:02:07;;;;;;;7.22;2.50;;;;;;;;;;5086302;28;20184;-48
2023/08/10 03:04:34;;;;;;;5.82;2.15;;;;;;;;;;5086076;28;20021;-48
2023/08/10 03:07:01;;;;;;;8.88;2.15;;;;;;;;;;5086104;28;20047;-47
2023/08/10 03:09:28;;;;;;;3.80;2.30;;;;;;;;;;5086829;28;20017;-51
2023/08/10 03:11:54;;;;;;;6.20;2.25;;;;;;;;;;5096033;28;20016;-51
2023/08/10 03:14:24;;;;;;;9.82;2.47;;;;;;;;;;5106231;28;20099;-58
2023/08/10 03:16:54;;;;;;;10.80;2.40;;;;;;;;;;5106204;28;20012;-51
2023/08/10 03:19:23;;;;;;;6.95;2.40;;;;;;;;;;5105418;28;20028;-55
2023/08/10 03:21:50;;;;;;;4.78;2.42;;;;;;;;;;5094807;28;20255;-49
2023/08/10 03:24:16;;;;;;;4.75;2.15;;;;;;;;;;5105297;28;20031;-53
2023/08/10 03:26:43;;;;;;;5.18;1.88;;;;;;;;;;5096628;28;20050;-49
2023/08/10 03:29:09;;;;;;;6.80;2.13;;;;;;;;;;5085350;28;20035;-52
2023/08/10 03:31:36;;;;;;;3.00;1.98;;;;;;;;;;5085306;28;20021;-49
2023/08/10 03:34:03;;;;;;;5.72;2.00;;;;;;;;;;5096699;28;20192;-47
2023/08/10 03:36:29;;;;;;;5.53;2.15;;;;;;;;;;5085386;28;20033;-56
2023/08/10 03:38:56;;;;;;;4.43;2.13;;;;;;;;;;5091779;28;20031;-53
2023/08/10 03:41:23;;;;;;;4.22;1.95;;;;;;;;;;5105749;28;20327;-47
2023/08/10 03:43:49;;;;;;;5.60;2.10;;;;;;;;;;5105324;28;20242;-48
2023/08/10 03:46:16;;;;;;;5.68;1.95;;;;;;;;;;5104885;28;20059;-51
2023/08/10 03:48:42;;;;;;;5.72;2.30;;;;;;;;;;5106226;28;20020;-47
2023/08/10 03:51:09;;;;;;;5.93;2.35;;;;;;;;;;5094035;28;20032;-45
2023/08/10 03:53:36;;;;;;;8.88;4.65;;;;;;;;;;5085049;28;20032;-49
2023/08/10 03:56:02;;;;;;;11.82;5.82;;;;;;;;;;5084829;28;20032;-46
2023/08/10 03:58:29;;;;;;;12.02;6.30;;;;;;;;;;5084701;28;20217;-52
2023/08/10 04:00:56;;;;;;;11.15;6.97;;;;;;;;;;5084774;28;20268;-48
2023/08/10 04:03:23;;;;;;;11.57;5.75;;;;;;;;;;5084803;28;20032;-55
2023/08/10 04:05:49;;;;;;;9.68;6.18;;;;;;;;;;5096128;28;20040;-47
2023/08/10 04:08:16;;;;;;;12.55;6.55;;;;;;;;;;5089256;28;20024;-47
2023/08/10 04:10:43;;;;;;;9.63;5.75;;;;;;;;;;5092759;28;20308;-49
2023/08/10 04:13:10;;;;;;;17.33;8.70;;;;;;;;;;5103314;28;20292;-53
2023/08/10 04:15:36;;;;;;;9.15;6.22;;;;;;;;;;5104863;28;20323;-48
2023/08/10 04:18:03;;;;;;;13.77;5.13;;;;;;;;;;5104745;28;20024;-49
2023/08/10 04:20:30;;;;;;;11.23;4.05;;;;;;;;;;5105650;28;20051;-49
2023/08/10 04:22:59;;;;;;;12.38;3.70;;;;;;;;;;5118755;28;20024;-52
2023/08/10 04:25:26;;;;;;;7.88;3.38;;;;;;;;;;5090819;28;20071;-51
2023/08/10 04:27:55;;;;;;;6.15;3.05;;;;;;;;;;5095977;28;20027;-51
2023/08/10 04:30:28;;;;;;;6.25;2.72;;;;;;;;;;5094023;28;20028;-48
2023/08/10 04:32:55;;;;;;;4.95;2.80;;;;;;;;;;5104581;28;20023;-47
2023/08/10 04:35:22;;;;;;;4.65;2.47;;;;;;;;;;5104563;28;20050;-46
2023/08/10 04:37:52;;;;;;;5.20;2.90;;;;;;;;;;5104440;28;20331;-51
2023/08/10 04:40:18;;;;;;;7.10;4.97;;;;;;;;;;5104491;28;20085;-48
2023/08/10 04:42:45;;;;;;;8.40;4.55;;;;;;;;;;5099106;28;20043;-46
2023/08/10 04:45:12;;;;;;;10.25;4.70;;;;;;;;;;5106808;28;20056;-49
2023/08/10 04:47:39;;;;;;;12.00;5.78;;;;;;;;;;5111889;28;20608;-48
2023/08/10 04:50:07;;;;;;;9.68;5.90;;;;;;;;;;5114300;28;20323;-49
2023/08/10 04:52:33;;;;;;;13.48;6.28;;;;;;;;;;5113524;28;20030;-48
2023/08/10 04:55:00;;;;;;;8.85;5.38;;;;;;;;;;5104760;28;20016;-51
2023/08/10 04:57:27;;;;;;;8.70;4.95;;;;;;;;;;5114029;28;20035;-51
2023/08/10 04:59:53;;;;;;;9.13;4.38;;;;;;;;;;5108404;28;20016;-46
2023/08/10 05:02:20;;;;;;;7.60;4.47;;;;;;;;;;5113287;28;20403;-52
2023/08/10 05:04:46;;;;;;;4.70;3.08;;;;;;;;;;5104666;28;20292;-47
2023/08/10 05:07:13;;;;;;;5.95;3.17;;;;;;;;;;5104150;28;20030;-54
2023/08/10 05:09:40;;;;;;;6.40;3.05;;;;;;;;;;5086239;28;20019;-47
2023/08/10 05:12:07;;;;;;;6.85;3.20;;;;;;;;;;5106229;28;20050;-47
2023/08/10 05:14:33;;;;;;;3.97;2.63;;;;;;;;;;5095214;28;20176;-48
2023/08/10 05:17:00;;;;;;;5.13;2.63;;;;;;;;;;5096033;28;20020;-53
2023/08/10 05:19:27;;;;;;;5.63;2.80;;;;;;;;;;5089699;28;20033;-43
2023/08/10 05:21:53;;;;;;;7.30;2.80;;;;;;;;;;5090421;28;20024;-56
2023/08/10 05:24:20;;;;;;;5.45;3.10;;;;;;;;;;5095545;28;20028;-48
2023/08/10 05:26:47;;;;;;;5.03;3.67;;;;;;;;;;5083932;28;20059;-50
2023/08/10 05:29:13;;;;;;;6.18;2.95;;;;;;;;;;5092357;28;20296;-53
2023/08/10 05:31:40;;;;;;;4.53;2.83;;;;;;;;;;5093060;28;20024;-56
2023/08/10 05:34:06;;;;;;;4.25;2.72;;;;;;;;;;5092706;28;20031;-58
2023/08/10 05:36:33;;;;;;;8.15;2.72;;;;;;;;;;5094588;28;20020;-49
2023/08/10 05:39:00;;;;;;;5.68;2.53;;;;;;;;;;5086505;28;20038;-47
2023/08/10 05:41:26;;;;;;;4.85;2.30;;;;;;;;;;5094791;28;20039;-48
2023/08/10 05:43:53;;;;;;;5.13;2.13;;;;;;;;;;5083794;28;20028;-48
2023/08/10 05:46:20;;;;;;;4.97;2.42;;;;;;;;;;5088999;28;20102;-50
2023/08/10 05:48:48;;;;;;;3.75;2.00;;;;;;;;;;5092832;28;20089;-49
2023/08/10 05:51:15;;;;;;;2.92;1.90;;;;;;;;;;5088570;28;20024;-50
2023/08/10 05:53:42;;;;;;;5.53;2.20;;;;;;;;;;5096294;28;20043;-54
2023/08/10 05:56:11;;;;;;;8.32;2.25;;;;;;;;;;5087276;28;20032;-48
2023/08/10 05:58:38;;;;;;;9.55;2.45;;;;;;;;;;5103492;28;20027;-46
2023/08/10 06:01:05;;;;;;;5.70;2.30;;;;;;;;;;5100086;28;20039;-42
2023/08/10 06:03:32;;;;;;;7.93;2.13;;;;;;;;;;5095596;28;20024;-58
2023/08/10 06:06:00;;;;;;;6.80;2.25;;;;;;;;;;5093149;28;20023;-45
2023/08/10 06:08:27;;;;;;;5.82;1.90;;;;;;;;;;5095355;28;20110;-45
2023/08/10 06:10:54;;;;;;;4.18;1.90;;;;;;;;;;5094651;28;20091;-50
2023/08/10 06:13:21;;;;;;;4.55;1.67;;;;;;;;;;5096887;28;20026;-52
2023/08/10 06:15:48;;;;;;;7.15;2.25;;;;;;;;;;5096731;28;20028;-47
2023/08/10 06:18:15;;;;;;;4.43;1.90;;;;;;;;;;5089465;28;20039;-48
2023/08/10 06:20:41;;;;;;;5.57;1.98;;;;;;;;;;5086972;28;20024;-44
2023/08/10 06:23:08;;;;;;;4.78;2.20;;;;;;;;;;5086895;28;20048;-47
2023/08/10 06:25:35;;;;;;;4.63;1.98;;;;;;;;;;5086882;28;20063;-49
2023/08/10 06:28:02;;;;;;;4.38;1.75;;;;;;;;;;5086982;28;20037;-47
2023/08/10 06:30:29;;;;;;;3.88;1.90;;;;;;;;;;5086536;28;20027;-54
2023/08/10 06:32:56;;;;;;;7.85;2.00;;;;;;;;;;5093567;28;20330;-46
2023/08/10 06:35:23;;;;;;;9.52;2.10;;;;;;;;;;5090497;28;20023;-47
2023/08/10 06:37:50;;;;;;;7.93;1.95;;;;;;;;;;5095898;28;20093;-56
2023/08/10 06:40:16;;;;;;;5.45;1.80;;;;;;;;;;5095623;28;20066;-51
2023/08/10 06:42:43;;;;;;;7.38;1.85;;;;;;;;;;5092651;28;20061;-47
2023/08/10 06:45:10;;;;;;;5.38;2.00;;;;;;;;;;5086423;28;20049;-53
2023/08/10 06:47:37;;;;;;;4.80;1.88;;;;;;;;;;5086150;28;20028;-45
2023/08/10 06:50:05;;;;;;;5.60;1.92;;;;;;;;;;5098512;28;20083;-44
2023/08/10 06:52:33;;;;;;;8.50;2.20;;;;;;;;;;5092315;28;20027;-47
2023/08/10 06:55:00;;;;;;;4.20;1.52;;;;;;;;;;5095609;28;20313;-46
2023/08/10 06:57:26;;;;;;;3.90;1.80;;;;;;;;;;5086323;28;20024;-50
2023/08/10 06:59:53;;;;;;;6.05;2.05;;;;;;;;;;5086291;28;20024;-50
2023/08/10 07:02:20;;;;;;;4.55;1.90;;;;;;;;;;5085871;28;20058;-48
2023/08/10 07:04:46;;;;;;;3.30;1.95;;;;;;;;;;5088842;28;20028;-46
2023/08/10 07:07:16;;;;;;;4.97;2.03;;;;;;;;;;5096661;28;20024;-47
2023/08/10 07:09:43;;;;;;;7.53;2.00;;;;;;;;;;5096851;28;20031;-44
2023/08/10 07:12:10;;;;;;;5.53;2.15;;;;;;;;;;5094823;28;20313;-48
2023/08/10 07:14:36;;;;;;;4.93;1.92;;;;;;;;;;5086310;28;20044;-46
2023/08/10 07:17:03;;;;;;;5.00;2.17;;;;;;;;;;5085632;28;20228;-51
2023/08/10 07:19:30;;;;;;;32.30;4.25;;;;;;;;;;5086868;28;20032;-47
2023/08/10 07:21:56;;;;;;;52.88;4.60;;;;;;;;;;5096264;28;20076;-48
2023/08/10 07:24:24;;;;;;;21.27;3.35;;;;;;;;;;5088840;28;20288;-53
2023/08/10 07:26:54;;;;;;;15.73;3.05;;;;;;;;;;5098556;28;20049;-57
2023/08/10 07:29:21;;;;;;;7.60;2.25;;;;;;;;;;5110986;28;20295;-45
2023/08/10 07:31:48;;;;;;;10.52;2.90;;;;;;;;;;5116131;28;20040;-49
2023/08/10 07:34:15;;;;;;;13.75;2.70;;;;;;;;;;5112967;28;20055;-53
2023/08/10 07:36:41;;;;;;;8.63;2.50;;;;;;;;;;5126216;28;20087;-49
2023/08/10 07:39:08;;;;;;;8.63;2.22;;;;;;;;;;5126207;28;20046;-47
2023/08/10 07:41:35;;;;;;;7.20;2.50;;;;;;;;;;5115938;28;20028;-45
2023/08/10 07:44:01;;;;;;;8.65;2.70;;;;;;;;;;5114565;28;20098;-44
2023/08/10 07:46:30;;;;;;;7.45;2.03;;;;;;;;;;5105680;28;20232;-47
2023/08/10 07:48:57;;;;;;;5.63;2.25;;;;;;;;;;5105614;28;20083;-52
2023/08/10 07:51:23;;;;;;;6.35;2.08;;;;;;;;;;5105404;28;20030;-52
2023/08/10 07:53:50;;;;;;;3.40;2.10;;;;;;;;;;5101572;28;20066;-52
2023/08/10 07:56:17;;;;;;;7.15;2.10;;;;;;;;;;5092798;28;20023;-48
2023/08/10 07:58:43;;;;;;;9.13;2.17;;;;;;;;;;5094127;28;20036;-48
2023/08/10 08:01:10;;;;;;;5.07;1.90;;;;;;;;;;5084521;28;20036;-48
2023/08/10 08:03:37;;;;;;;7.40;2.08;;;;;;;;;;5086859;28;20235;-54
2023/08/10 08:06:16;;;;;;;2.53;1.70;;;;;;;;;;5091608;28;20243;-55
2023/08/10 08:08:43;;;;;;;5.28;2.10;;;;;;;;;;5096502;28;20036;-56
2023/08/10 08:11:09;;;;;;;6.50;2.13;;;;;;;;;;5084813;28;20084;-55
2023/08/10 08:13:36;;;;;;;3.30;2.08;;;;;;;;;;5092597;28;20368;-46
2023/08/10 08:16:05;;;;;;;4.28;2.00;;;;;;;;;;5088121;28;20043;-53
2023/08/10 08:18:41;;;;;;;5.97;2.20;;;;;;;;;;5084696;28;20020;-46
2023/08/10 08:21:08;;;;;;;6.43;2.30;;;;;;;;;;5084341;28;20332;-45
2023/08/10 08:23:35;;;;;;;4.80;2.10;;;;;;;;;;5084617;28;20087;-44
2023/08/10 08:26:03;;;;;;;4.15;2.03;;;;;;;;;;5084533;28;20040;-46
2023/08/10 08:28:29;;;;;;;5.80;1.50;;;;;;;;;;5084579;28;20032;-46
2023/08/10 08:30:56;;;;;;;2.90;1.65;;;;;;;;;;5084367;28;20040;-49
2023/08/10 08:33:23;;;;;;;4.70;1.42;;;;;;;;;;5084304;28;20056;-43
2023/08/10 08:35:50;;;;;;;4.00;1.10;;;;;;;;;;5084400;28;20078;-52
2023/08/10 08:38:18;;;;;;;2.78;1.15;;;;;;;;;;5084337;28;20024;-60
2023/08/10 08:40:45;;;;;;;4.07;0.85;;;;;;;;;;5084244;28;20107;-45
2023/08/10 08:43:12;;;;;;;1.77;0.70;;;;;;;;;;5084161;28;20197;-49
2023/08/10 08:45:41;;;;;;;3.58;0.70;;;;;;;;;;5084061;28;20048;-44
2023/08/10 08:48:09;;;;;;;1.38;0.57;;;;;;;;;;5084160;28;20032;-46
2023/08/10 08:50:39;;;;;;;1.63;0.70;;;;;;;;;;5084284;28;20198;-49
2023/08/10 08:53:12;;;;;;;1.75;0.70;;;;;;;;;;5084351;28;20012;-55
2023/08/10 08:55:38;;;;;;;;;;;;;;;;;;5084515;28;20033;-53
2023/08/10 08:58:05;;;;;;;0.50;0.28;;;;;;;;;;5083874;28;20025;-54
2023/08/10 09:00:32;;;;;;;1.42;0.50;;;;;;;;;;5083555;28;20043;-54
2023/08/10 09:02:59;;;;;;;1.05;0.40;;;;;;;;;;5084041;28;20328;-54
2023/08/10 09:05:26;;;;;;;1.08;0.32;;;;;;;;;;5083886;28;20036;-55
2023/08/10 09:07:53;;;;;;;2.72;0.40;;;;;;;;;;5084144;28;20216;-45
2023/08/10 09:10:23;;;;;;;1.38;0.30;;;;;;;;;;5083917;28;20039;-45
2023/08/10 09:12:50;;;;;;;0.60;0.22;;;;;;;;;;5083794;28;20294;-46
2023/08/10 09:15:18;;;;;;;1.38;0.40;;;;;;;;;;5084229;28;20211;-50
2023/08/10 09:17:48;;;;;;;2.03;0.50;;;;;;;;;;5083656;28;20197;-52
2023/08/10 09:20:26;;;;;;;1.33;0.32;;;;;;;;;;5084098;28;20131;-47
2023/08/10 09:22:53;;;;;;;0.57;0.30;;;;;;;;;;5083958;28;20016;-43
2023/08/10 09:25:21;;;;;;;0.70;0.40;;;;;;;;;;5083756;28;20038;-51
2023/08/10 09:27:48;;;;;;;0.75;0.22;;;;;;;;;;5083738;28;20155;-50
2023/08/10 09:30:15;;;;;;;1.00;0.60;;;;;;;;;;5083829;28;20025;-50
2023/08/10 09:32:42;;;;;;;0.77;0.50;;;;;;;;;;5092027;28;20027;-47
2023/08/10 09:35:19;;;;;;;1.05;0.30;;;;;;;;;;5086396;28;20029;-46
2023/08/10 09:37:47;;;;;;;3.33;0.60;;;;;;;;;;5083596;28;20102;-45
2023/08/10 09:40:15;;;;;;;0.28;0.28;;;;;;;;;;5083562;28;20029;-46
2023/08/10 09:42:42;;;;;;;1.02;0.50;;;;;;;;;;5083720;28;20089;-53
2023/08/10 09:45:10;;;;;;;1.50;0.35;;;;;;;;;;5087501;28;20109;-46
2023/08/10 09:47:40;;;;;;;1.65;0.30;;;;;;;;;;5096470;28;20320;-48
2023/08/10 09:50:09;;;;;;;2.28;0.52;;;;;;;;;;5099073;28;20028;-47
2023/08/10 09:52:36;;;;;;;1.77;0.47;;;;;;;;;;5096135;28;20312;-48
2023/08/10 09:55:04;;;;;;;2.80;0.60;;;;;;;;;;5087890;28;20059;-45
2023/08/10 09:57:31;;;;;;;2.80;0.70;;;;;;;;;;5087295;28;20035;-48
2023/08/10 09:59:58;;;;;;;1.17;0.50;;;;;;;;;;5087555;28;20035;-45
2023/08/10 10:02:25;;;;;;;3.17;0.50;;;;;;;;;;5110608;28;20064;-49
2023/08/10 10:04:52;;;;;;;1.15;0.40;;;;;;;;;;5115459;28;20020;-50
2023/08/10 10:07:23;;;;;;;1.85;0.50;;;;;;;;;;5118434;28;20054;-55
2023/08/10 10:09:51;;;;;;;2.37;0.63;;;;;;;;;;5117629;28;20019;-49
2023/08/10 10:12:18;;;;;;;1.45;0.40;;;;;;;;;;5112402;28;20050;-52
2023/08/10 10:14:48;;;;;;;1.08;0.47;;;;;;;;;;5117725;28;20027;-48
2023/08/10 10:17:17;;;;;;;3.47;0.60;;;;;;;;;;5097146;28;20031;-48
2023/08/10 10:19:48;;;;;;;2.42;0.90;;;;;;;;;;5119648;28;20042;-48
2023/08/10 10:22:16;;;;;;;2.63;0.73;;;;;;;;;;5114260;28;20070;-47
2023/08/10 10:24:43;;;;;;;0.82;0.57;;;;;;;;;;5097116;28;20016;-43
2023/08/10 10:27:11;;;;;;;1.95;0.50;;;;;;;;;;5117219;28;20023;-49
2023/08/10 10:29:40;;;;;;;2.35;0.60;;;;;;;;;;5118134;28;20200;-46
2023/08/10 10:32:07;;;;;;;13.18;1.05;;;;;;;;;;5114009;28;20031;-48
2023/08/10 10:34:34;;;;;;;4.28;0.73;;;;;;;;;;5115596;28;20079;-54
2023/08/10 10:37:12;;;;;;;4.90;0.52;;;;;;;;;;5114952;28;20089;-53
2023/08/10 10:39:40;;;;;;;1.95;0.50;;;;;;;;;;5115870;28;20046;-48
2023/08/10 10:42:08;;;;;;;3.15;0.57;;;;;;;;;;5118261;28;20324;-49
2023/08/10 10:44:53;;;;;;;4.20;2.10;;;;;;;;;;5106624;28;20051;-47
2023/08/10 10:47:32;;;;;;;12.18;2.00;;;;;;;;;;5106396;28;20095;-47
2023/08/10 10:49:59;;;;;;;24.20;2.78;;;;;;;;;;5107125;28;20016;-49
2023/08/10 10:52:36;;;;;;;15.13;1.40;;;;;;;;;;5106503;28;20043;-52
2023/08/10 10:55:06;;;;;;;7.90;1.40;;;;;;;;;;5105814;28;20024;-50
2023/08/10 10:57:34;;;;;;;7.55;1.30;;;;;;;;;;5106314;28;20115;-47
2023/08/10 11:00:00;;;;;;;21.77;2.05;;;;;;;;;;5106057;28;20344;-51
2023/08/10 11:02:27;;;;;;;13.68;1.83;;;;;;;;;;5106728;28;20050;-49
2023/08/10 11:04:54;;;;;;;23.55;2.45;;;;;;;;;;5106829;28;20051;-53
2023/08/10 11:07:21;;;;;;;29.83;2.83;;;;;;;;;;5106391;28;20045;-49
2023/08/10 11:09:48;;;;;;;28.08;2.83;;;;;;;;;;5106252;28;20012;-54
2023/08/10 11:12:18;;;;;;;76.72;7.15;;;;;;;;;;5106268;28;20028;-49
2023/08/10 11:14:47;;;;;;;24.70;5.32;;;;;;;;;;5105972;28;20078;-49
2023/08/10 11:17:24;;;;;;;26.55;5.30;;;;;;;;;;5106461;28;20020;-49
2023/08/10 11:20:01;;;;;;;;;;;;;;;;;;;;;
2023/08/10 11:22:28;;;;;;;56.70;4.60;;;;;;;;;;5105961;28;20036;-54
2023/08/10 11:24:55;;;;;;;33.28;3.58;;;;;;;;;;5106141;28;20042;-49
2023/08/10 11:27:22;;;;;;;31.10;3.72;;;;;;;;;;5116607;28;20028;-50
2023/08/10 11:29:49;;;;;;;17.40;2.50;;;;;;;;;;5126527;28;20079;-46
2023/08/10 11:32:16;;;;;;;23.88;3.00;;;;;;;;;;5126375;28;20110;-52
2023/08/10 11:34:42;;;;;;;21.83;3.08;;;;;;;;;;5117422;28;20021;-54
2023/08/10 11:37:09;;;;;;;42.20;5.40;;;;;;;;;;5094281;28;20084;-48
2023/08/10 11:39:36;;;;;;;54.97;6.97;;;;;;;;;;5085674;28;20330;-48
2023/08/10 11:42:03;;;;;;;43.60;5.15;;;;;;;;;;5085655;28;20039;-50
2023/08/10 11:44:30;;;;;;;36.97;4.25;;;;;;;;;;5085381;28;20144;-46
2023/08/10 11:46:57;;;;;;;36.53;4.57;;;;;;;;;;5085573;28;20047;-46
2023/08/10 11:49:31;;;;;;;26.73;3.30;;;;;;;;;;5084874;28;20350;-49
2023/08/10 11:52:00;;;;;;;52.53;6.07;;;;;;;;;;5084214;28;20024;-44
2023/08/10 11:54:30;;;;;;;27.48;4.65;;;;;;;;;;5085280;28;20024;-47
2023/08/10 11:56:57;;;;;;;41.20;7.57;;;;;;;;;;5085710;28;20339;-44
2023/08/10 11:59:24;;;;;;;24.98;4.80;;;;;;;;;;5085409;28;20071;-45
2023/08/10 12:01:57;;;;;;;32.55;4.20;;;;;;;;;;5085359;28;20059;-47
2023/08/10 12:04:29;;;;;;;18.10;3.60;;;;;;;;;;5084687;28;20209;-51
2023/08/10 12:06:56;;;;;;;15.68;3.60;;;;;;;;;;5085381;28;20028;-53
2023/08/10 12:09:28;;;;;;;9.07;4.00;;;;;;;;;;5084594;28;20029;-50
2023/08/10 12:12:03;;;;;;;13.88;4.45;;;;;;;;;;5084802;28;20021;-46
2023/08/10 12:14:33;;;;;;;10.82;4.25;;;;;;;;;;5083504;28;20033;-49
2023/08/10 12:17:00;;;;;;;12.38;3.55;;;;;;;;;;5084942;28;20297;-46
2023/08/10 12:19:27;;;;;;;8.40;2.80;;;;;;;;;;5084654;28;20048;-48
2023/08/10 12:21:54;;;;;;;9.63;3.05;;;;;;;;;;5084874;28;20047;-56
2023/08/10 12:24:21;;;;;;;14.40;3.03;;;;;;;;;;5084367;28;20025;-49
2023/08/10 12:26:48;;;;;;;12.25;3.17;;;;;;;;;;5084849;28;20032;-51
2023/08/10 12:29:15;;;;;;;10.93;3.40;;;;;;;;;;5084336;28;20035;-49
2023/08/10 12:31:44;;;;;;;9.73;3.42;;;;;;;;;;5084932;28;20039;-49
2023/08/10 12:34:11;;;;;;;17.52;4.47;;;;;;;;;;5084489;28;20035;-49
2023/08/10 12:36:38;;;;;;;13.68;3.60;;;;;;;;;;5084925;28;20016;-52
2023/08/10 12:39:05;;;;;;;8.95;3.78;;;;;;;;;;5084924;28;20025;-48
2023/08/10 12:41:32;;;;;;;17.42;4.18;;;;;;;;;;5112758;28;20051;-47
2023/08/10 12:43:59;;;;;;;17.40;4.18;;;;;;;;;;5104572;28;20019;-50
2023/08/10 12:46:25;;;;;;;22.58;3.90;;;;;;;;;;5098824;28;20023;-48
2023/08/10 12:48:52;;;;;;;33.33;5.07;;;;;;;;;;5084813;28;20040;-49
2023/08/10 12:51:24;;;;;;;17.45;4.40;;;;;;;;;;5090667;28;20027;-45
2023/08/10 12:53:51;;;;;;;20.65;4.28;;;;;;;;;;5099622;28;20024;-46
2023/08/10 12:56:17;;;;;;;52.22;6.20;;;;;;;;;;5084172;28;20048;-55
2023/08/10 12:58:44;;;;;;;20.83;3.95;;;;;;;;;;5083966;28;20216;-45
2023/08/10 13:01:14;;;;;;;23.13;3.63;;;;;;;;;;5093339;28;20027;-45
2023/08/10 13:03:41;;;;;;;17.98;4.40;;;;;;;;;;5117611;28;20318;-46
2023/08/10 13:06:13;;;;;;;26.58;4.60;;;;;;;;;;5083043;28;20028;-47
2023/08/10 13:08:41;;;;;;;22.55;3.80;;;;;;;;;;5084109;28;20176;-52
2023/08/10 13:11:09;;;;;;;63.97;6.38;;;;;;;;;;5084088;28;20032;-52
2023/08/10 13:13:35;;;;;;;29.13;4.30;;;;;;;;;;5083865;28;20327;-46
2023/08/10 13:16:04;;;;;;;146.63;10.00;;;;;;;;;;5084566;28;20035;-51
2023/08/10 13:18:31;;;;;;;34.45;4.15;;;;;;;;;;5096523;28;20036;-49
2023/08/10 13:20:58;;;;;;;32.83;3.67;;;;;;;;;;5108273;28;20020;-48
2023/08/10 13:23:24;;;;;;;28.35;3.33;;;;;;;;;;5108690;28;20028;-48
2023/08/10 13:25:51;;;;;;;20.88;3.50;;;;;;;;;;5108318;28;20051;-52
2023/08/10 13:28:18;;;;;;;14.82;2.90;;;;;;;;;;5108062;28;20023;-52
2023/08/10 13:30:45;;;;;;;10.30;2.70;;;;;;;;;;5101983;28;20116;-55
2023/08/10 13:33:20;;;;;;;6.22;2.45;;;;;;;;;;5090066;28;20025;-52
2023/08/10 13:35:47;;;;;;;6.07;2.28;;;;;;;;;;5086383;28;20078;-47
2023/08/10 13:38:19;;;;;;;6.78;1.90;;;;;;;;;;5088282;28;20032;-49
2023/08/10 13:40:46;;;;;;;7.57;1.98;;;;;;;;;;5087669;28;20339;-53
2023/08/10 13:43:13;;;;;;;5.65;2.10;;;;;;;;;;5087718;28;20241;-51
2023/08/10 13:45:39;;;;;;;4.50;1.60;;;;;;;;;;5094685;28;20060;-47
2023/08/10 13:48:06;;;;;;;3.20;1.63;;;;;;;;;;5095997;28;20080;-45
2023/08/10 13:50:34;;;;;;;2.92;1.40;;;;;;;;;;5107634;28;20342;-44
2023/08/10 13:53:00;;;;;;;3.42;1.73;;;;;;;;;;5106137;28;20028;-46
2023/08/10 13:55:27;;;;;;;3.15;1.75;;;;;;;;;;5097324;28;20028;-46
2023/08/10 13:57:54;;;;;;;4.15;1.80;;;28.30;99.90;;;;;;5096106;28;20017;-47
2023/08/10 14:00:24;;;;;;;4.43;2.20;;;28.20;99.90;;;;;;5086027;28;20032;-47
2023/08/10 14:02:54;;;;;;;5.35;2.67;;;28.20;99.90;;;;;;5116425;28;20042;-50
2023/08/10 14:05:20;;;;;;;5.57;2.35;;;28.20;99.90;;;;;;5127797;28;20042;-49
2023/08/10 14:07:47;;;;;;;6.35;2.60;;;28.20;99.90;;;;;;5127860;28;20070;-46
2023/08/10 14:10:15;;;;;;;8.18;3.17;;;28.10;99.90;;;;;;5127983;28;20022;-49
2023/08/10 14:12:42;;;;;;;9.93;3.20;;;28.20;99.90;;;;;;5127712;28;20051;-45
2023/08/10 14:15:10;;;;;;;11.57;4.20;;;;;;;;;;5127711;28;20092;-48
2023/08/10 14:17:36;;;;;;;15.25;4.97;;;;;;;;;;5127846;28;20020;-45
2023/08/10 14:20:03;;;;;;;18.88;8.18;;;;;;;;;;5127442;28;20350;-49
2023/08/10 14:22:30;;;;;;;17.92;6.15;;;;;;;;;;5102191;28;20055;-47
2023/08/10 14:24:57;;;;;;;18.17;6.15;;;;;;;;;;5102758;28;21225;-58
2023/08/10 14:27:23;;;;;;;29.38;8.73;;;;;;;;;;5097290;28;20205;-49
2023/08/10 14:29:51;;;;;;;28.10;7.82;;;;;;;;;;5096400;28;20028;-45
2023/08/10 14:32:17;;;;;;;29.63;5.90;;;;;;;;;;5088127;28;20336;-47
2023/08/10 14:34:44;;;;;;;20.77;4.93;;;;;;;;;;5095051;28;20055;-50
2023/08/10 14:37:11;;;;;;;32.97;5.55;;;;;;;;;;5091653;28;20080;-47
2023/08/10 14:39:37;;;;;;;29.65;6.28;;;;;;;;;;5105649;28;20032;-44